sensor_id;sensor_type;location;lat;lon;timestamp;P1;durP1;ratioP1;P2;durP2;ratioP2
21820;SDS011;11073;48.586;12.066;2022-11-09T00:01:27;10.18;;;8.45;;
21820;SDS011;11073;48.586;12.066;2022-11-09T00:03:56;11.82;;;8.82;;
21820;SDS011;11073;48.586;12.066;2022-11-09T00:06:26;13.65;;;8.35;;
21820;SDS011;11073;48.586;12.066;2022-11-09T00:08:57;11.23;;;8.73;;
21820;SDS011;11073;48.586;12.066;2022-11-09T00:11:34;15.40;;;10.20;;
21820;SDS011;11073;48.586;12.066;2022-11-09T00:14:03;14.27;;;9.50;;
21820;SDS011;11073;48.586;12.066;2022-11-09T00:16:32;13.05;;;9.60;;
21820;SDS011;11073;48.586;12.066;2022-11-09T00:19:01;11.65;;;7.78;;
21820;SDS011;11073;48.586;12.066;2022-11-09T00:21:30;10.38;;;6.78;;
21820;SDS011;11073;48.586;12.066;2022-11-09T00:24:00;13.57;;;7.13;;
21820;SDS011;11073;48.586;12.066;2022-11-09T00:26:28;8.60;;;5.85;;
21820;SDS011;11073;48.586;12.066;2022-11-09T00:28:58;8.88;;;6.45;;
21820;SDS011;11073;48.586;12.066;2022-11-09T00:31:26;9.18;;;6.82;;
21820;SDS011;11073;48.586;12.066;2022-11-09T00:33:55;10.35;;;7.95;;
21820;SDS011;11073;48.586;12.066;2022-11-09T00:36:25;12.25;;;8.35;;
21820;SDS011;11073;48.586;12.066;2022-11-09T00:38:55;15.23;;;10.73;;
21820;SDS011;11073;48.586;12.066;2022-11-09T00:41:26;18.45;;;11.65;;
21820;SDS011;11073;48.586;12.066;2022-11-09T00:43:55;13.03;;;9.20;;
21820;SDS011;11073;48.586;12.066;2022-11-09T00:46:24;11.60;;;7.80;;
21820;SDS011;11073;48.586;12.066;2022-11-09T00:48:54;10.48;;;7.28;;
21820;SDS011;11073;48.586;12.066;2022-11-09T00:51:23;9.82;;;7.60;;
21820;SDS011;11073;48.586;12.066;2022-11-09T00:53:52;9.63;;;6.70;;
21820;SDS011;11073;48.586;12.066;2022-11-09T00:56:23;11.23;;;7.43;;
21820;SDS011;11073;48.586;12.066;2022-11-09T00:58:53;11.27;;;6.50;;
21820;SDS011;11073;48.586;12.066;2022-11-09T01:01:22;8.52;;;6.50;;
21820;SDS011;11073;48.586;12.066;2022-11-09T01:03:51;11.27;;;8.13;;
21820;SDS011;11073;48.586;12.066;2022-11-09T01:06:22;13.37;;;8.83;;
21820;SDS011;11073;48.586;12.066;2022-11-09T01:08:52;10.20;;;7.27;;
21820;SDS011;11073;48.586;12.066;2022-11-09T01:11:21;9.10;;;7.32;;
21820;SDS011;11073;48.586;12.066;2022-11-09T01:13:54;9.15;;;6.38;;
21820;SDS011;11073;48.586;12.066;2022-11-09T01:16:27;8.35;;;6.57;;
21820;SDS011;11073;48.586;12.066;2022-11-09T01:18:56;10.83;;;7.47;;
21820;SDS011;11073;48.586;12.066;2022-11-09T01:21:26;9.10;;;6.67;;
21820;SDS011;11073;48.586;12.066;2022-11-09T01:23:58;9.43;;;6.70;;
21820;SDS011;11073;48.586;12.066;2022-11-09T01:26:27;10.87;;;6.00;;
21820;SDS011;11073;48.586;12.066;2022-11-09T01:28:58;8.25;;;6.38;;
21820;SDS011;11073;48.586;12.066;2022-11-09T01:31:26;8.37;;;5.57;;
21820;SDS011;11073;48.586;12.066;2022-11-09T01:33:55;8.77;;;6.07;;
21820;SDS011;11073;48.586;12.066;2022-11-09T01:36:24;8.67;;;6.37;;
21820;SDS011;11073;48.586;12.066;2022-11-09T01:38:53;8.90;;;5.45;;
21820;SDS011;11073;48.586;12.066;2022-11-09T01:41:22;8.83;;;6.70;;
21820;SDS011;11073;48.586;12.066;2022-11-09T01:44:04;9.95;;;6.30;;
21820;SDS011;11073;48.586;12.066;2022-11-09T01:46:39;9.35;;;6.80;;
21820;SDS011;11073;48.586;12.066;2022-11-09T01:49:14;11.25;;;7.35;;
21820;SDS011;11073;48.586;12.066;2022-11-09T01:51:49;9.77;;;6.73;;
21820;SDS011;11073;48.586;12.066;2022-11-09T01:54:22;12.00;;;8.17;;
21820;SDS011;11073;48.586;12.066;2022-11-09T01:56:56;11.97;;;7.40;;
21820;SDS011;11073;48.586;12.066;2022-11-09T01:59:28;13.60;;;8.20;;
21820;SDS011;11073;48.586;12.066;2022-11-09T02:02:01;16.77;;;9.80;;
21820;SDS011;11073;48.586;12.066;2022-11-09T02:04:32;12.17;;;8.33;;
21820;SDS011;11073;48.586;12.066;2022-11-09T02:07:08;12.57;;;7.87;;
21820;SDS011;11073;48.586;12.066;2022-11-09T02:09:38;14.93;;;9.60;;
21820;SDS011;11073;48.586;12.066;2022-11-09T02:12:12;9.70;;;7.73;;
21820;SDS011;11073;48.586;12.066;2022-11-09T02:14:45;9.20;;;6.70;;
21820;SDS011;11073;48.586;12.066;2022-11-09T02:17:16;12.80;;;8.00;;
21820;SDS011;11073;48.586;12.066;2022-11-09T02:19:46;11.50;;;8.43;;
21820;SDS011;11073;48.586;12.066;2022-11-09T02:22:16;8.77;;;6.30;;
21820;SDS011;11073;48.586;12.066;2022-11-09T02:24:45;9.85;;;6.88;;
21820;SDS011;11073;48.586;12.066;2022-11-09T02:27:19;8.97;;;6.40;;
21820;SDS011;11073;48.586;12.066;2022-11-09T02:29:49;10.57;;;7.43;;
21820;SDS011;11073;48.586;12.066;2022-11-09T02:32:19;10.37;;;7.07;;
21820;SDS011;11073;48.586;12.066;2022-11-09T02:34:52;12.23;;;7.97;;
21820;SDS011;11073;48.586;12.066;2022-11-09T02:37:26;9.83;;;8.20;;
21820;SDS011;11073;48.586;12.066;2022-11-09T02:39:56;9.73;;;6.20;;
21820;SDS011;11073;48.586;12.066;2022-11-09T02:42:27;10.53;;;7.13;;
21820;SDS011;11073;48.586;12.066;2022-11-09T02:44:57;9.13;;;6.90;;
21820;SDS011;11073;48.586;12.066;2022-11-09T02:47:27;8.60;;;6.22;;
21820;SDS011;11073;48.586;12.066;2022-11-09T02:49:57;8.30;;;5.87;;
21820;SDS011;11073;48.586;12.066;2022-11-09T02:52:27;10.33;;;6.57;;
21820;SDS011;11073;48.586;12.066;2022-11-09T02:54:56;11.73;;;5.70;;
21820;SDS011;11073;48.586;12.066;2022-11-09T02:57:25;7.50;;;5.80;;
21820;SDS011;11073;48.586;12.066;2022-11-09T02:59:54;7.47;;;6.03;;
21820;SDS011;11073;48.586;12.066;2022-11-09T03:02:24;7.55;;;5.53;;
21820;SDS011;11073;48.586;12.066;2022-11-09T03:04:53;7.30;;;5.80;;
21820;SDS011;11073;48.586;12.066;2022-11-09T03:07:22;9.57;;;5.60;;
21820;SDS011;11073;48.586;12.066;2022-11-09T03:09:52;8.60;;;5.35;;
21820;SDS011;11073;48.586;12.066;2022-11-09T03:12:23;8.38;;;5.82;;
21820;SDS011;11073;48.586;12.066;2022-11-09T03:15:05;10.80;;;6.00;;
21820;SDS011;11073;48.586;12.066;2022-11-09T03:17:39;8.55;;;5.95;;
21820;SDS011;11073;48.586;12.066;2022-11-09T03:20:08;10.47;;;6.73;;
21820;SDS011;11073;48.586;12.066;2022-11-09T03:22:39;9.83;;;6.00;;
21820;SDS011;11073;48.586;12.066;2022-11-09T03:25:09;9.63;;;7.03;;
21820;SDS011;11073;48.586;12.066;2022-11-09T03:27:39;12.77;;;8.45;;
21820;SDS011;11073;48.586;12.066;2022-11-09T03:30:08;11.13;;;7.38;;
21820;SDS011;11073;48.586;12.066;2022-11-09T03:32:38;9.93;;;7.53;;
21820;SDS011;11073;48.586;12.066;2022-11-09T03:35:10;10.27;;;7.13;;
21820;SDS011;11073;48.586;12.066;2022-11-09T03:37:39;15.17;;;8.70;;
21820;SDS011;11073;48.586;12.066;2022-11-09T03:40:10;11.53;;;7.27;;
21820;SDS011;11073;48.586;12.066;2022-11-09T03:42:42;10.63;;;7.60;;
21820;SDS011;11073;48.586;12.066;2022-11-09T03:45:12;10.73;;;7.93;;
21820;SDS011;11073;48.586;12.066;2022-11-09T03:47:41;8.80;;;6.90;;
21820;SDS011;11073;48.586;12.066;2022-11-09T03:50:10;10.50;;;7.83;;
21820;SDS011;11073;48.586;12.066;2022-11-09T03:52:42;11.77;;;8.67;;
21820;SDS011;11073;48.586;12.066;2022-11-09T03:55:13;13.50;;;9.40;;
21820;SDS011;11073;48.586;12.066;2022-11-09T03:57:43;11.07;;;8.33;;
21820;SDS011;11073;48.586;12.066;2022-11-09T04:00:13;10.07;;;7.20;;
21820;SDS011;11073;48.586;12.066;2022-11-09T04:02:44;11.47;;;7.83;;
21820;SDS011;11073;48.586;12.066;2022-11-09T04:05:13;12.70;;;9.63;;
21820;SDS011;11073;48.586;12.066;2022-11-09T04:07:45;9.30;;;7.07;;
21820;SDS011;11073;48.586;12.066;2022-11-09T04:10:17;13.93;;;9.20;;
21820;SDS011;11073;48.586;12.066;2022-11-09T04:12:47;9.93;;;7.90;;
21820;SDS011;11073;48.586;12.066;2022-11-09T04:15:16;11.23;;;8.90;;
21820;SDS011;11073;48.586;12.066;2022-11-09T04:17:52;11.33;;;7.53;;
21820;SDS011;11073;48.586;12.066;2022-11-09T04:20:22;14.43;;;10.07;;
21820;SDS011;11073;48.586;12.066;2022-11-09T04:22:54;9.00;;;7.10;;
21820;SDS011;11073;48.586;12.066;2022-11-09T04:25:24;11.93;;;9.20;;
21820;SDS011;11073;48.586;12.066;2022-11-09T04:27:53;10.07;;;6.83;;
21820;SDS011;11073;48.586;12.066;2022-11-09T04:30:23;14.33;;;9.33;;
21820;SDS011;11073;48.586;12.066;2022-11-09T04:32:54;15.03;;;10.93;;
21820;SDS011;11073;48.586;12.066;2022-11-09T04:35:23;11.93;;;8.87;;
21820;SDS011;11073;48.586;12.066;2022-11-09T04:37:53;14.30;;;8.90;;
21820;SDS011;11073;48.586;12.066;2022-11-09T04:40:24;10.50;;;7.90;;
21820;SDS011;11073;48.586;12.066;2022-11-09T04:42:54;10.07;;;6.77;;
21820;SDS011;11073;48.586;12.066;2022-11-09T04:45:23;9.80;;;7.17;;
21820;SDS011;11073;48.586;12.066;2022-11-09T04:47:55;12.93;;;9.77;;
21820;SDS011;11073;48.586;12.066;2022-11-09T04:50:27;11.33;;;9.00;;
21820;SDS011;11073;48.586;12.066;2022-11-09T04:53:02;11.73;;;9.67;;
21820;SDS011;11073;48.586;12.066;2022-11-09T04:55:47;8.67;;;6.40;;
21820;SDS011;11073;48.586;12.066;2022-11-09T04:58:15;11.40;;;7.30;;
21820;SDS011;11073;48.586;12.066;2022-11-09T05:00:51;10.37;;;7.20;;
21820;SDS011;11073;48.586;12.066;2022-11-09T05:03:20;11.63;;;7.80;;
21820;SDS011;11073;48.586;12.066;2022-11-09T05:05:49;12.17;;;8.20;;
21820;SDS011;11073;48.586;12.066;2022-11-09T05:08:18;9.47;;;7.73;;
21820;SDS011;11073;48.586;12.066;2022-11-09T05:10:48;9.53;;;7.20;;
21820;SDS011;11073;48.586;12.066;2022-11-09T05:13:17;7.17;;;5.87;;
21820;SDS011;11073;48.586;12.066;2022-11-09T05:15:46;11.10;;;7.30;;
21820;SDS011;11073;48.586;12.066;2022-11-09T05:18:14;10.33;;;7.40;;
21820;SDS011;11073;48.586;12.066;2022-11-09T05:20:44;13.53;;;9.23;;
21820;SDS011;11073;48.586;12.066;2022-11-09T05:23:12;11.00;;;8.87;;
21820;SDS011;11073;48.586;12.066;2022-11-09T05:26:00;11.27;;;7.90;;
21820;SDS011;11073;48.586;12.066;2022-11-09T05:28:29;12.93;;;8.00;;
21820;SDS011;11073;48.586;12.066;2022-11-09T05:30:58;11.63;;;8.67;;
21820;SDS011;11073;48.586;12.066;2022-11-09T05:33:27;13.83;;;10.43;;
21820;SDS011;11073;48.586;12.066;2022-11-09T05:35:56;15.10;;;9.30;;
21820;SDS011;11073;48.586;12.066;2022-11-09T05:38:25;11.17;;;8.63;;
21820;SDS011;11073;48.586;12.066;2022-11-09T05:40:54;11.83;;;8.80;;
21820;SDS011;11073;48.586;12.066;2022-11-09T05:43:24;10.00;;;7.60;;
21820;SDS011;11073;48.586;12.066;2022-11-09T05:45:53;12.87;;;9.50;;
21820;SDS011;11073;48.586;12.066;2022-11-09T05:48:22;12.33;;;9.40;;
21820;SDS011;11073;48.586;12.066;2022-11-09T05:50:51;14.30;;;9.60;;
21820;SDS011;11073;48.586;12.066;2022-11-09T05:53:23;13.40;;;8.37;;
21820;SDS011;11073;48.586;12.066;2022-11-09T05:55:52;10.03;;;7.10;;
21820;SDS011;11073;48.586;12.066;2022-11-09T05:58:21;8.67;;;6.87;;
21820;SDS011;11073;48.586;12.066;2022-11-09T06:00:51;13.57;;;6.83;;
21820;SDS011;11073;48.586;12.066;2022-11-09T06:03:19;11.60;;;8.07;;
21820;SDS011;11073;48.586;12.066;2022-11-09T06:05:48;15.50;;;9.47;;
21820;SDS011;11073;48.586;12.066;2022-11-09T06:08:16;14.60;;;9.10;;
21820;SDS011;11073;48.586;12.066;2022-11-09T06:10:45;12.90;;;9.40;;
21820;SDS011;11073;48.586;12.066;2022-11-09T06:13:14;13.73;;;9.80;;
21820;SDS011;11073;48.586;12.066;2022-11-09T06:15:43;12.47;;;7.93;;
21820;SDS011;11073;48.586;12.066;2022-11-09T06:18:22;12.47;;;8.40;;
21820;SDS011;11073;48.586;12.066;2022-11-09T06:20:51;10.20;;;7.33;;
21820;SDS011;11073;48.586;12.066;2022-11-09T06:23:20;10.87;;;8.10;;
21820;SDS011;11073;48.586;12.066;2022-11-09T06:25:52;9.47;;;7.37;;
21820;SDS011;11073;48.586;12.066;2022-11-09T06:28:20;8.60;;;7.27;;
21820;SDS011;11073;48.586;12.066;2022-11-09T06:30:49;11.07;;;7.73;;
21820;SDS011;11073;48.586;12.066;2022-11-09T06:33:19;9.57;;;6.70;;
21820;SDS011;11073;48.586;12.066;2022-11-09T06:35:49;7.70;;;6.17;;
21820;SDS011;11073;48.586;12.066;2022-11-09T06:38:22;10.23;;;7.23;;
21820;SDS011;11073;48.586;12.066;2022-11-09T06:40:53;8.70;;;6.03;;
21820;SDS011;11073;48.586;12.066;2022-11-09T06:43:23;10.57;;;7.33;;
21820;SDS011;11073;48.586;12.066;2022-11-09T06:45:52;12.20;;;8.00;;
21820;SDS011;11073;48.586;12.066;2022-11-09T06:48:22;11.83;;;8.57;;
21820;SDS011;11073;48.586;12.066;2022-11-09T06:50:51;12.93;;;9.23;;
21820;SDS011;11073;48.586;12.066;2022-11-09T06:53:20;10.60;;;8.60;;
21820;SDS011;11073;48.586;12.066;2022-11-09T06:55:50;12.13;;;8.87;;
21820;SDS011;11073;48.586;12.066;2022-11-09T06:58:19;14.57;;;8.67;;
21820;SDS011;11073;48.586;12.066;2022-11-09T07:00:48;11.30;;;8.20;;
21820;SDS011;11073;48.586;12.066;2022-11-09T07:03:17;13.50;;;8.77;;
21820;SDS011;11073;48.586;12.066;2022-11-09T07:05:49;13.77;;;10.17;;
21820;SDS011;11073;48.586;12.066;2022-11-09T07:08:19;12.23;;;9.20;;
21820;SDS011;11073;48.586;12.066;2022-11-09T07:10:48;14.37;;;8.50;;
21820;SDS011;11073;48.586;12.066;2022-11-09T07:13:16;9.80;;;7.67;;
21820;SDS011;11073;48.586;12.066;2022-11-09T07:15:51;9.83;;;6.93;;
21820;SDS011;11073;48.586;12.066;2022-11-09T07:18:20;9.97;;;7.23;;
21820;SDS011;11073;48.586;12.066;2022-11-09T07:20:50;8.77;;;6.97;;
21820;SDS011;11073;48.586;12.066;2022-11-09T07:23:19;8.00;;;7.03;;
21820;SDS011;11073;48.586;12.066;2022-11-09T07:25:48;10.87;;;8.67;;
21820;SDS011;11073;48.586;12.066;2022-11-09T07:28:17;10.73;;;8.57;;
21820;SDS011;11073;48.586;12.066;2022-11-09T07:30:46;12.13;;;8.67;;
21820;SDS011;11073;48.586;12.066;2022-11-09T07:33:18;9.87;;;8.07;;
21820;SDS011;11073;48.586;12.066;2022-11-09T07:35:51;9.27;;;7.30;;
21820;SDS011;11073;48.586;12.066;2022-11-09T07:38:20;11.80;;;8.27;;
21820;SDS011;11073;48.586;12.066;2022-11-09T07:40:49;14.57;;;10.50;;
21820;SDS011;11073;48.586;12.066;2022-11-09T07:43:18;12.73;;;9.50;;
21820;SDS011;11073;48.586;12.066;2022-11-09T07:45:50;11.20;;;8.13;;
21820;SDS011;11073;48.586;12.066;2022-11-09T07:48:19;12.13;;;8.70;;
21820;SDS011;11073;48.586;12.066;2022-11-09T07:50:48;15.27;;;8.50;;
21820;SDS011;11073;48.586;12.066;2022-11-09T07:53:18;12.33;;;7.57;;
21820;SDS011;11073;48.586;12.066;2022-11-09T07:55:54;11.57;;;8.17;;
21820;SDS011;11073;48.586;12.066;2022-11-09T07:58:24;8.63;;;6.80;;
21820;SDS011;11073;48.586;12.066;2022-11-09T08:00:52;9.90;;;7.50;;
21820;SDS011;11073;48.586;12.066;2022-11-09T08:03:22;11.97;;;6.77;;
21820;SDS011;11073;48.586;12.066;2022-11-09T08:05:52;12.73;;;6.63;;
21820;SDS011;11073;48.586;12.066;2022-11-09T08:08:21;11.20;;;6.93;;
21820;SDS011;11073;48.586;12.066;2022-11-09T08:10:50;10.33;;;7.53;;
21820;SDS011;11073;48.586;12.066;2022-11-09T08:13:19;14.07;;;10.03;;
21820;SDS011;11073;48.586;12.066;2022-11-09T08:15:49;13.70;;;9.93;;
21820;SDS011;11073;48.586;12.066;2022-11-09T08:18:19;14.53;;;10.13;;
21820;SDS011;11073;48.586;12.066;2022-11-09T08:20:49;11.93;;;7.10;;
21820;SDS011;11073;48.586;12.066;2022-11-09T08:23:18;11.03;;;8.83;;
21820;SDS011;11073;48.586;12.066;2022-11-09T08:25:49;11.03;;;7.47;;
21820;SDS011;11073;48.586;12.066;2022-11-09T08:28:18;12.87;;;9.10;;
21820;SDS011;11073;48.586;12.066;2022-11-09T08:30:54;18.93;;;12.37;;
21820;SDS011;11073;48.586;12.066;2022-11-09T08:33:24;11.70;;;8.83;;
21820;SDS011;11073;48.586;12.066;2022-11-09T08:35:53;11.27;;;8.17;;
21820;SDS011;11073;48.586;12.066;2022-11-09T08:38:23;11.07;;;7.90;;
21820;SDS011;11073;48.586;12.066;2022-11-09T08:40:56;12.13;;;8.93;;
21820;SDS011;11073;48.586;12.066;2022-11-09T08:43:25;11.77;;;8.20;;
21820;SDS011;11073;48.586;12.066;2022-11-09T08:45:54;10.03;;;7.33;;
21820;SDS011;11073;48.586;12.066;2022-11-09T08:48:23;10.98;;;7.53;;
21820;SDS011;11073;48.586;12.066;2022-11-09T08:50:52;8.80;;;6.90;;
21820;SDS011;11073;48.586;12.066;2022-11-09T08:53:22;9.83;;;6.97;;
21820;SDS011;11073;48.586;12.066;2022-11-09T08:55:52;10.80;;;7.73;;
21820;SDS011;11073;48.586;12.066;2022-11-09T08:58:23;7.73;;;6.40;;
21820;SDS011;11073;48.586;12.066;2022-11-09T09:00:52;8.20;;;6.57;;
21820;SDS011;11073;48.586;12.066;2022-11-09T09:03:21;9.52;;;6.85;;
21820;SDS011;11073;48.586;12.066;2022-11-09T09:05:49;10.40;;;6.63;;
21820;SDS011;11073;48.586;12.066;2022-11-09T09:08:19;9.00;;;7.22;;
21820;SDS011;11073;48.586;12.066;2022-11-09T09:10:50;8.50;;;6.55;;
21820;SDS011;11073;48.586;12.066;2022-11-09T09:13:19;7.80;;;6.35;;
21820;SDS011;11073;48.586;12.066;2022-11-09T09:15:50;7.65;;;5.95;;
21820;SDS011;11073;48.586;12.066;2022-11-09T09:18:19;9.50;;;6.28;;
21820;SDS011;11073;48.586;12.066;2022-11-09T09:20:48;8.98;;;6.10;;
21820;SDS011;11073;48.586;12.066;2022-11-09T09:23:17;9.40;;;6.10;;
21820;SDS011;11073;48.586;12.066;2022-11-09T09:25:46;9.45;;;6.20;;
21820;SDS011;11073;48.586;12.066;2022-11-09T09:28:15;9.00;;;6.47;;
21820;SDS011;11073;48.586;12.066;2022-11-09T09:30:44;8.00;;;6.32;;
21820;SDS011;11073;48.586;12.066;2022-11-09T09:33:15;8.80;;;5.82;;
21820;SDS011;11073;48.586;12.066;2022-11-09T09:35:44;11.10;;;6.00;;
21820;SDS011;11073;48.586;12.066;2022-11-09T09:38:13;12.45;;;6.72;;
21820;SDS011;11073;48.586;12.066;2022-11-09T09:40:53;11.20;;;6.65;;
21820;SDS011;11073;48.586;12.066;2022-11-09T09:43:27;9.40;;;6.63;;
21820;SDS011;11073;48.586;12.066;2022-11-09T09:46:03;9.73;;;7.15;;
21820;SDS011;11073;48.586;12.066;2022-11-09T09:48:37;10.95;;;6.88;;
21820;SDS011;11073;48.586;12.066;2022-11-09T09:51:09;11.48;;;6.57;;
21820;SDS011;11073;48.586;12.066;2022-11-09T09:53:45;9.32;;;6.97;;
21820;SDS011;11073;48.586;12.066;2022-11-09T09:56:17;8.90;;;6.80;;
21820;SDS011;11073;48.586;12.066;2022-11-09T09:58:51;9.73;;;7.70;;
21820;SDS011;11073;48.586;12.066;2022-11-09T10:01:26;11.52;;;8.13;;
21820;SDS011;11073;48.586;12.066;2022-11-09T10:04:04;8.50;;;6.85;;
21820;SDS011;11073;48.586;12.066;2022-11-09T10:06:47;10.00;;;7.60;;
21820;SDS011;11073;48.586;12.066;2022-11-09T10:09:29;9.75;;;6.88;;
21820;SDS011;11073;48.586;12.066;2022-11-09T10:12:14;9.93;;;6.57;;
21820;SDS011;11073;48.586;12.066;2022-11-09T10:15:02;9.18;;;5.40;;
21820;SDS011;11073;48.586;12.066;2022-11-09T10:17:42;7.80;;;5.53;;
21820;SDS011;11073;48.586;12.066;2022-11-09T10:20:28;8.40;;;5.88;;
21820;SDS011;11073;48.586;12.066;2022-11-09T10:23:12;9.90;;;6.13;;
21820;SDS011;11073;48.586;12.066;2022-11-09T10:25:58;7.47;;;5.32;;
21820;SDS011;11073;48.586;12.066;2022-11-09T10:28:35;7.85;;;6.07;;
21820;SDS011;11073;48.586;12.066;2022-11-09T10:31:30;11.95;;;5.90;;
21820;SDS011;11073;48.586;12.066;2022-11-09T10:34:01;8.25;;;5.40;;
21820;SDS011;11073;48.586;12.066;2022-11-09T10:36:42;8.18;;;5.32;;
21820;SDS011;11073;48.586;12.066;2022-11-09T10:39:14;6.32;;;4.80;;
21820;SDS011;11073;48.586;12.066;2022-11-09T10:42:03;6.95;;;4.82;;
21820;SDS011;11073;48.586;12.066;2022-11-09T10:44:50;7.97;;;5.40;;
21820;SDS011;11073;48.586;12.066;2022-11-09T10:47:45;9.13;;;5.35;;
21820;SDS011;11073;48.586;12.066;2022-11-09T10:50:34;7.65;;;4.90;;
21820;SDS011;11073;48.586;12.066;2022-11-09T10:53:26;11.02;;;5.28;;
21820;SDS011;11073;48.586;12.066;2022-11-09T10:56:15;6.20;;;4.90;;
21820;SDS011;11073;48.586;12.066;2022-11-09T11:02:38;10.82;;;5.72;;
21820;SDS011;11073;48.586;12.066;2022-11-09T11:05:32;8.25;;;5.60;;
21820;SDS011;11073;48.586;12.066;2022-11-09T11:08:21;7.70;;;5.47;;
21820;SDS011;11073;48.586;12.066;2022-11-09T11:11:22;6.30;;;5.30;;
21820;SDS011;11073;48.586;12.066;2022-11-09T11:14:24;9.07;;;5.80;;
21820;SDS011;11073;48.586;12.066;2022-11-09T11:17:22;7.60;;;4.80;;
21820;SDS011;11073;48.586;12.066;2022-11-09T11:20:23;5.65;;;5.07;;
21820;SDS011;11073;48.586;12.066;2022-11-09T11:23:14;6.07;;;4.50;;
21820;SDS011;11073;48.586;12.066;2022-11-09T11:29:28;6.90;;;4.45;;
21820;SDS011;11073;48.586;12.066;2022-11-09T11:32:21;8.20;;;4.65;;
21820;SDS011;11073;48.586;12.066;2022-11-09T11:35:12;11.15;;;5.03;;
21820;SDS011;11073;48.586;12.066;2022-11-09T11:38:05;5.20;;;4.57;;
21820;SDS011;11073;48.586;12.066;2022-11-09T11:41:12;7.85;;;4.70;;
21820;SDS011;11073;48.586;12.066;2022-11-09T11:44:22;12.68;;;4.68;;
21820;SDS011;11073;48.586;12.066;2022-11-09T11:47:29;5.53;;;4.25;;
21820;SDS011;11073;48.586;12.066;2022-11-09T11:50:29;5.57;;;4.47;;
21820;SDS011;11073;48.586;12.066;2022-11-09T11:53:28;5.65;;;3.90;;
21820;SDS011;11073;48.586;12.066;2022-11-09T11:56:30;8.52;;;3.92;;
21820;SDS011;11073;48.586;12.066;2022-11-09T11:59:42;8.65;;;4.22;;
21820;SDS011;11073;48.586;12.066;2022-11-09T12:02:47;9.45;;;4.93;;
21820;SDS011;11073;48.586;12.066;2022-11-09T12:05:52;4.32;;;3.92;;
21820;SDS011;11073;48.586;12.066;2022-11-09T12:08:59;5.93;;;4.43;;
21820;SDS011;11073;48.586;12.066;2022-11-09T12:11:58;8.27;;;4.70;;
21820;SDS011;11073;48.586;12.066;2022-11-09T12:14:58;9.60;;;5.15;;
21820;SDS011;11073;48.586;12.066;2022-11-09T12:18:02;10.63;;;5.07;;
21820;SDS011;11073;48.586;12.066;2022-11-09T12:21:03;5.40;;;4.80;;
21820;SDS011;11073;48.586;12.066;2022-11-09T12:24:05;8.88;;;5.38;;
21820;SDS011;11073;48.586;12.066;2022-11-09T12:27:11;7.90;;;5.47;;
21820;SDS011;11073;48.586;12.066;2022-11-09T12:30:19;6.95;;;5.38;;
21820;SDS011;11073;48.586;12.066;2022-11-09T12:33:11;7.40;;;5.05;;
21820;SDS011;11073;48.586;12.066;2022-11-09T12:36:02;5.85;;;4.75;;
21820;SDS011;11073;48.586;12.066;2022-11-09T12:38:59;7.60;;;5.50;;
21820;SDS011;11073;48.586;12.066;2022-11-09T12:41:50;9.73;;;5.68;;
21820;SDS011;11073;48.586;12.066;2022-11-09T12:44:42;9.80;;;6.35;;
21820;SDS011;11073;48.586;12.066;2022-11-09T12:47:36;8.23;;;6.75;;
21820;SDS011;11073;48.586;12.066;2022-11-09T12:50:27;12.27;;;7.15;;
21820;SDS011;11073;48.586;12.066;2022-11-09T12:53:15;9.18;;;6.70;;
21820;SDS011;11073;48.586;12.066;2022-11-09T12:56:04;10.68;;;7.25;;
21820;SDS011;11073;48.586;12.066;2022-11-09T13:02:15;10.32;;;7.78;;
21820;SDS011;11073;48.586;12.066;2022-11-09T13:05:25;10.65;;;7.55;;
21820;SDS011;11073;48.586;12.066;2022-11-09T13:08:16;9.40;;;6.50;;
21820;SDS011;11073;48.586;12.066;2022-11-09T13:11:06;8.13;;;5.80;;
21820;SDS011;11073;48.586;12.066;2022-11-09T13:20:50;6.20;;;4.38;;
21820;SDS011;11073;48.586;12.066;2022-11-09T13:23:43;5.72;;;4.25;;
21820;SDS011;11073;48.586;12.066;2022-11-09T13:26:56;7.93;;;5.18;;
21820;SDS011;11073;48.586;12.066;2022-11-09T13:29:47;5.15;;;4.28;;
21820;SDS011;11073;48.586;12.066;2022-11-09T13:32:44;5.63;;;4.57;;
21820;SDS011;11073;48.586;12.066;2022-11-09T13:42:27;7.30;;;5.35;;
21820;SDS011;11073;48.586;12.066;2022-11-09T13:45:27;6.65;;;4.85;;
21820;SDS011;11073;48.586;12.066;2022-11-09T13:51:37;10.98;;;5.28;;
21820;SDS011;11073;48.586;12.066;2022-11-09T13:54:29;6.70;;;4.90;;
21820;SDS011;11073;48.586;12.066;2022-11-09T13:57:18;9.35;;;5.63;;
21820;SDS011;11073;48.586;12.066;2022-11-09T14:00:09;8.05;;;4.80;;
21820;SDS011;11073;48.586;12.066;2022-11-09T14:03:14;8.52;;;5.40;;
21820;SDS011;11073;48.586;12.066;2022-11-09T14:06:05;8.00;;;4.85;;
21820;SDS011;11073;48.586;12.066;2022-11-09T14:08:52;7.80;;;5.10;;
21820;SDS011;11073;48.586;12.066;2022-11-09T14:15:03;7.47;;;5.18;;
21820;SDS011;11073;48.586;12.066;2022-11-09T14:18:06;7.95;;;5.25;;
21820;SDS011;11073;48.586;12.066;2022-11-09T14:21:13;6.60;;;5.72;;
21820;SDS011;11073;48.586;12.066;2022-11-09T14:24:12;7.50;;;5.07;;
21820;SDS011;11073;48.586;12.066;2022-11-09T14:27:11;5.93;;;5.07;;
21820;SDS011;11073;48.586;12.066;2022-11-09T14:30:00;7.88;;;5.97;;
21820;SDS011;11073;48.586;12.066;2022-11-09T14:32:48;10.13;;;5.25;;
21820;SDS011;11073;48.586;12.066;2022-11-09T14:35:38;7.60;;;5.60;;
21820;SDS011;11073;48.586;12.066;2022-11-09T14:38:28;7.65;;;5.22;;
21820;SDS011;11073;48.586;12.066;2022-11-09T14:41:18;7.43;;;5.30;;
21820;SDS011;11073;48.586;12.066;2022-11-09T14:44:09;8.07;;;5.15;;
21820;SDS011;11073;48.586;12.066;2022-11-09T14:47:02;9.35;;;6.82;;
21820;SDS011;11073;48.586;12.066;2022-11-09T14:49:51;7.00;;;4.78;;
21820;SDS011;11073;48.586;12.066;2022-11-09T14:52:38;6.13;;;4.50;;
21820;SDS011;11073;48.586;12.066;2022-11-09T14:55:35;7.57;;;5.43;;
21820;SDS011;11073;48.586;12.066;2022-11-09T14:58:27;6.43;;;5.15;;
21820;SDS011;11073;48.586;12.066;2022-11-09T15:01:18;5.28;;;4.60;;
21820;SDS011;11073;48.586;12.066;2022-11-09T15:04:10;6.18;;;5.22;;
21820;SDS011;11073;48.586;12.066;2022-11-09T15:07:02;6.72;;;5.70;;
21820;SDS011;11073;48.586;12.066;2022-11-09T15:09:50;9.93;;;5.50;;
21820;SDS011;11073;48.586;12.066;2022-11-09T15:12:47;7.70;;;5.25;;
21820;SDS011;11073;48.586;12.066;2022-11-09T15:15:35;6.57;;;4.85;;
21820;SDS011;11073;48.586;12.066;2022-11-09T15:18:24;7.35;;;5.00;;
21820;SDS011;11073;48.586;12.066;2022-11-09T15:21:20;7.85;;;4.93;;
21820;SDS011;11073;48.586;12.066;2022-11-09T15:24:19;9.52;;;5.10;;
21820;SDS011;11073;48.586;12.066;2022-11-09T15:30:29;9.32;;;5.45;;
21820;SDS011;11073;48.586;12.066;2022-11-09T15:33:23;9.10;;;5.22;;
21820;SDS011;11073;48.586;12.066;2022-11-09T15:36:29;6.90;;;5.10;;
21820;SDS011;11073;48.586;12.066;2022-11-09T15:39:19;6.65;;;4.32;;
21820;SDS011;11073;48.586;12.066;2022-11-09T15:42:08;9.57;;;5.38;;
21820;SDS011;11073;48.586;12.066;2022-11-09T15:44:57;8.55;;;5.53;;
21820;SDS011;11073;48.586;12.066;2022-11-09T15:47:50;7.10;;;6.03;;
21820;SDS011;11073;48.586;12.066;2022-11-09T15:50:38;8.77;;;6.63;;
21820;SDS011;11073;48.586;12.066;2022-11-09T15:53:26;9.52;;;7.13;;
21820;SDS011;11073;48.586;12.066;2022-11-09T15:56:15;8.57;;;6.75;;
21820;SDS011;11073;48.586;12.066;2022-11-09T15:59:04;8.02;;;6.28;;
21820;SDS011;11073;48.586;12.066;2022-11-09T16:01:52;8.23;;;6.60;;
21820;SDS011;11073;48.586;12.066;2022-11-09T16:04:40;7.97;;;6.82;;